Time;durP1;ratioP1;P1;durP2;ratioP2;P2;SDS_P1;SDS_P2;PMS_P1;PMS_P2;Temp;Humidity;BMP_temperature;BMP_pressure;BME280_temperature;BME280_humidity;BME280_pressure;Samples;Min_cycle;Max_cycle;Signal;HPM_P1;HPM_P2
2024/03/11 00:02:21;;;;;;;;;;;;;;;;;;5012125;28;20304;-61
2024/03/11 00:04:46;;;;;;;;;;;;;;;;;;5013926;28;19913;-62
2024/03/11 00:07:15;;;;;;;;;;;;;;;;;;5012681;28;19935;-62
2024/03/11 00:09:44;;;;;;;;;;;;;;;;;;5013644;28;19949;-61
2024/03/11 00:12:10;;;;;;;;;;;;;;;;;;5013556;28;20119;-61
2024/03/11 00:14:36;;;;;;;;;;;;;;;;;;5022920;28;19948;-62
2024/03/11 00:17:05;;;;;;;;;;;;;;;;;;5014998;28;19918;-63
2024/03/11 00:19:31;;;;;;;;;;;;;;;;;;5011389;28;19917;-63
2024/03/11 00:21:57;;;;;;;;;;;;;;;;;;5016723;28;19979;-62
2024/03/11 00:24:23;;;;;;;;;;;;;;;;;;5012451;28;19914;-62
2024/03/11 00:26:49;;;;;;;;;;;;;;;;;;5012109;28;19925;-61
2024/03/11 00:29:15;;;;;;;;;;;;;;;;;;5015302;28;20330;-62
2024/03/11 00:31:42;;;;;;;;;;;;;;;;;;5019608;28;19940;-63
2024/03/11 00:34:08;;;;;;;;;;;;;;;;;;5011746;28;20001;-62
2024/03/11 00:36:34;;;;;;;;;;;;;;;;;;5014779;28;20105;-63
2024/03/11 00:39:00;;;;;;;;;;;;;;;;;;5015656;28;20004;-61
2024/03/11 00:41:26;;;;;;;;;;;;;;;;;;5012555;28;19929;-62
2024/03/11 00:43:51;;;;;;;;;;;;;;;;;;5013942;28;19929;-61
2024/03/11 00:46:18;;;;;;;;;;;;;;;;;;5013608;28;19917;-64
2024/03/11 00:48:44;;;;;;;;;;;;;;;;;;5012772;28;19921;-64
2024/03/11 00:51:10;;;;;;;;;;;;;;;;;;5012179;28;19917;-63
2024/03/11 00:53:36;;;;;;;;;;;;;;;;;;5014743;28;19917;-63
2024/03/11 00:56:02;;;;;;;;;;;;;;;;;;5012623;28;19913;-64
2024/03/11 00:58:28;;;;;;;;;;;;;;;;;;5017511;28;20480;-63
2024/03/11 01:00:55;;;;;;;;;;;;;;;;;;5015073;28;20532;-64
2024/03/11 01:03:22;;;;;;;;;;;;;;;;;;5006550;28;19935;-63
2024/03/11 01:05:49;;;;;;;;;;;;;;;;;;5016735;28;20319;-62
2024/03/11 01:08:16;;;;;;;;;;;;;;;;;;5011610;28;19914;-64
2024/03/11 01:10:42;;;;;;;;;;;;;;;;;;5017691;28;19920;-63
2024/03/11 01:13:07;;;;;;;;;;;;;;;;;;5016529;28;19921;-64
2024/03/11 01:15:34;;;;;;;;;;;;;;;;;;5010689;28;19976;-64
2024/03/11 01:18:00;;;;;;;;;;;;;;;;;;5014035;28;19924;-64
2024/03/11 01:20:26;;;;;;;;;;;;;;;;;;5014283;28;19913;-64
2024/03/11 01:22:52;;;;;;;;;;;;;;;;;;5014714;28;20056;-63
2024/03/11 01:25:20;;;;;;;;;;;;;;;;;;5015688;28;19920;-62
2024/03/11 01:27:45;;;;;;;;;;;;;;;;;;5027459;28;19917;-63
2024/03/11 01:30:12;;;;;;;;;;;;;;;;;;5020930;28;20278;-64
2024/03/11 01:32:39;;;;;;;;;;;;;;;;;;5013677;28;19917;-63
2024/03/11 01:35:05;;;;;;;;;;;;;;;;;;5011154;28;20368;-62
2024/03/11 01:37:30;;;;;;;;;;;;;;;;;;5013458;28;19969;-64
2024/03/11 01:39:56;;;;;;;;;;;;;;;;;;5018845;28;20329;-63
2024/03/11 01:42:23;;;;;;;;;;;;;;;;;;5010928;28;19918;-62
2024/03/11 01:44:49;;;;;;;;;;;;;;;;;;5014729;28;20429;-62
2024/03/11 01:47:15;;;;;;;;;;;;;;;;;;5011314;28;19917;-63
2024/03/11 01:49:41;;;;;;;;;;;;;;;;;;5016690;28;20311;-63
2024/03/11 01:52:07;;;;;;;;;;;;;;;;;;5010911;28;20387;-64
2024/03/11 01:54:33;;;;;;;;;;;;;;;;;;5010542;28;20008;-62
2024/03/11 01:57:01;;;;;;;;;;;;;;;;;;5016694;28;19940;-61
2024/03/11 01:59:27;;;;;;;;;;;;;;;;;;5010284;28;19918;-63
2024/03/11 02:01:53;;;;;;;;;;;;;;;;;;5015047;28;19920;-62
2024/03/11 02:04:20;;;;;;;;;;;;;;;;;;5014667;28;20474;-65
2024/03/11 02:06:46;;;;;;;;;;;;;;;;;;5012888;28;19921;-62
2024/03/11 02:09:14;;;;;;;;;;;;;;;;;;5010758;28;19920;-62
2024/03/11 02:11:40;;;;;;;;;;;;;;;;;;5009544;28;19920;-62
2024/03/11 02:14:08;;;;;;;;;;;;;;;;;;5007757;28;19913;-61
2024/03/11 02:16:33;;;;;;;;;;;;;;;;;;5007101;28;19921;-63
2024/03/11 02:18:59;;;;;;;;;;;;;;;;;;5015559;28;19925;-60
2024/03/11 02:21:25;;;;;;;;;;;;;;;;;;5014529;28;19913;-64
2024/03/11 02:23:51;;;;;;;;;;;;;;;;;;5017426;28;19913;-62
2024/03/11 02:26:19;;;;;;;;;;;;;;;;;;5015088;28;20311;-65
2024/03/11 02:28:45;;;;;;;;;;;;;;;;;;5016330;28;20335;-64
2024/03/11 02:31:12;;;;;;;;;;;;;;;;;;5015027;28;19928;-64
2024/03/11 02:33:38;;;;;;;;;;;;;;;;;;5011669;28;19925;-63
2024/03/11 02:36:03;;;;;;;;;;;;;;;;;;5016359;28;20261;-63
2024/03/11 02:38:29;;;;;;;;;;;;;;;;;;5015737;28;19928;-63
2024/03/11 02:40:55;;;;;;;;;;;;;;;;;;5012979;28;19979;-62
2024/03/11 02:43:21;;;;;;;;;;;;;;;;;;5014077;28;19956;-64
2024/03/11 02:45:47;;;;;;;;;;;;;;;;;;5012947;28;20180;-62
2024/03/11 02:48:13;;;;;;;;;;;;;;;;;;5015654;28;19914;-63
2024/03/11 02:50:39;;;;;;;;;;;;;;;;;;5016884;28;19920;-65
2024/03/11 02:53:05;;;;;;;;;;;;;;;;;;5012985;28;19943;-64
2024/03/11 02:55:31;;;;;;;;;;;;;;;;;;5015395;28;19913;-64
2024/03/11 02:57:56;;;;;;;;;;;;;;;;;;5018948;28;19956;-63
2024/03/11 03:00:22;;;;;;;;;;;;;;;;;;5012838;28;19924;-64
2024/03/11 03:02:49;;;;;;;;;;;;;;;;;;5013896;28;20534;-63
2024/03/11 03:05:16;;;;;;;;;;;;;;;;;;5018141;28;19963;-63
2024/03/11 03:07:42;;;;;;;;;;;;;;;;;;5027576;28;19918;-64
2024/03/11 03:10:07;;;;;;;;;;;;;;;;;;5013883;28;19947;-65
2024/03/11 03:12:35;;;;;;;;;;;;;;;;;;5013381;28;19929;-64
2024/03/11 03:15:01;;;;;;;;;;;;;;;;;;5012484;28;19913;-64
2024/03/11 03:17:27;;;;;;;;;;;;;;;;;;5014753;28;20423;-64
2024/03/11 03:19:53;;;;;;;;;;;;;;;;;;5017040;28;19920;-64
2024/03/11 03:22:19;;;;;;;;;;;;;;;;;;5013679;28;19921;-63
2024/03/11 03:24:46;;;;;;;;;;;;;;;;;;5016090;28;20567;-63
2024/03/11 03:27:12;;;;;;;;;;;;;;;;;;5014977;28;20327;-64
2024/03/11 03:29:40;;;;;;;;;;;;;;;;;;5013361;28;19929;-64
2024/03/11 03:32:06;;;;;;;;;;;;;;;;;;5013241;28;19959;-64
2024/03/11 03:34:31;;;;;;;;;;;;;;;;;;5019119;28;19943;-63
2024/03/11 03:36:58;;;;;;;;;;;;;;;;;;5024992;28;19921;-63
2024/03/11 03:39:24;;;;;;;;;;;;;;;;;;5029924;28;19979;-64
2024/03/11 03:41:50;;;;;;;;;;;;;;;;;;5016241;28;19984;-64
2024/03/11 03:44:16;;;;;;;;;;;;;;;;;;5018997;28;19966;-65
2024/03/11 03:46:42;;;;;;;;;;;;;;;;;;5014025;28;19925;-65
2024/03/11 03:49:07;;;;;;;;;;;;;;;;;;5012185;28;20296;-64
2024/03/11 03:51:33;;;;;;;;;;;;;;;;;;5013734;28;19932;-64
2024/03/11 03:53:59;;;;;;;;;;;;;;;;;;5014557;28;19929;-64
2024/03/11 03:56:25;;;;;;;;;;;;;;;;;;5016377;28;19918;-65
2024/03/11 03:58:51;;;;;;;;;;;;;;;;;;5015395;28;19963;-64
2024/03/11 04:01:17;;;;;;;;;;;;;;;;;;5009264;28;19937;-64
2024/03/11 04:03:43;;;;;;;;;;;;;;;;;;5013805;28;19913;-65
2024/03/11 04:06:09;;;;;;;;;;;;;;;;;;5010976;28;19926;-64
2024/03/11 04:08:35;;;;;;;;;;;;;;;;;;5013741;28;20495;-64
2024/03/11 04:11:01;;;;;;;;;;;;;;;;;;5017584;28;19913;-64
2024/03/11 04:13:27;;;;;;;;;;;;;;;;;;5013093;28;20001;-63
2024/03/11 04:15:54;;;;;;;;;;;;;;;;;;5012245;28;20012;-64
2024/03/11 04:18:20;;;;;;;;;;;;;;;;;;5010265;28;20211;-65
2024/03/11 04:20:49;;;;;;;;;;;;;;;;;;5016538;28;19928;-64
2024/03/11 04:23:15;;;;;;;;;;;;;;;;;;5015526;28;20291;-64
2024/03/11 04:25:41;;;;;;;;;;;;;;;;;;5027044;28;20368;-65
2024/03/11 04:28:08;;;;;;;;;;;;;;;;;;5016392;28;19979;-64
2024/03/11 04:30:34;;;;;;;;;;;;;;;;;;5016055;28;19932;-65
2024/03/11 04:33:02;;;;;;;;;;;;;;;;;;5012693;28;19913;-65
2024/03/11 04:35:28;;;;;;;;;;;;;;;;;;5012512;28;19949;-64
2024/03/11 04:37:54;;;;;;;;;;;;;;;;;;5017602;28;19964;-64
2024/03/11 04:40:20;;;;;;;;;;;;;;;;;;5010992;28;20667;-64
2024/03/11 04:42:46;;;;;;;;;;;;;;;;;;5011596;28;19914;-64
2024/03/11 04:45:11;;;;;;;;;;;;;;;;;;5012943;28;19979;-63
2024/03/11 04:47:38;;;;;;;;;;;;;;;;;;5010584;28;20012;-64
2024/03/11 04:50:05;;;;;;;;;;;;;;;;;;5013849;28;20020;-64
2024/03/11 04:52:31;;;;;;;;;;;;;;;;;;5008804;28;19921;-64
2024/03/11 04:54:57;;;;;;;;;;;;;;;;;;5010599;28;20302;-64
2024/03/11 04:57:23;;;;;;;;;;;;;;;;;;5012013;28;19913;-65
2024/03/11 04:59:49;;;;;;;;;;;;;;;;;;5010366;28;20004;-63
2024/03/11 05:02:15;;;;;;;;;;;;;;;;;;5014877;28;20691;-64
2024/03/11 05:04:40;;;;;;;;;;;;;;;;;;5014101;28;19913;-63
2024/03/11 05:07:06;;;;;;;;;;;;;;;;;;5009215;28;19922;-62
2024/03/11 05:09:32;;;;;;;;;;;;;;;;;;5012564;28;20394;-64
2024/03/11 05:11:58;;;;;;;;;;;;;;;;;;5013655;28;19933;-64
2024/03/11 05:14:24;;;;;;;;;;;;;;;;;;5010124;28;19940;-63
2024/03/11 05:16:50;;;;;;;;;;;;;;;;;;5010043;28;20000;-63
2024/03/11 05:19:16;;;;;;;;;;;;;;;;;;5016850;28;20356;-64
2024/03/11 05:21:42;;;;;;;;;;;;;;;;;;5012257;28;19940;-65
2024/03/11 05:24:08;;;;;;;;;;;;;;;;;;5014939;28;20000;-65
2024/03/11 05:26:33;;;;;;;;;;;;;;;;;;5015835;28;19960;-63
2024/03/11 05:28:59;;;;;;;;;;;;;;;;;;5014848;28;21043;-63
2024/03/11 05:31:26;;;;;;;;;;;;;;;;;;5013032;28;19929;-65
2024/03/11 05:33:51;;;;;;;;;;;;;;;;;;5011475;28;19913;-65
2024/03/11 05:36:17;;;;;;;;;;;;;;;;;;5005740;28;19944;-64
2024/03/11 05:38:43;;;;;;;;;;;;;;;;;;5012588;28;19925;-64
2024/03/11 05:41:09;;;;;;;;;;;;;;;;;;5015567;28;19923;-65
2024/03/11 05:43:35;;;;;;;;;;;;;;;;;;5012665;28;20287;-65
2024/03/11 05:46:01;;;;;;;;;;;;;;;;;;5026164;28;19914;-64
2024/03/11 05:48:27;;;;;;;;;;;;;;;;;;5026718;28;19945;-64
2024/03/11 05:51:01;;;;;;;;;;;;;;;;;;5009771;28;19921;-64
2024/03/11 05:53:28;;;;;;;;;;;;;;;;;;5013429;28;19945;-62
2024/03/11 05:55:54;;;;;;;;;;;;;;;;;;5009385;28;19988;-62
2024/03/11 05:58:26;;;;;;;;;;;;;;;;;;5008242;28;20406;-63
2024/03/11 06:00:52;;;;;;;;;;;;;;;;;;5008174;28;19988;-62
2024/03/11 06:03:18;;;;;;;;;;;;;;;;;;5010050;28;19917;-63
2024/03/11 06:05:44;;;;;;;;;;;;;;;;;;5010317;28;20012;-62
2024/03/11 06:08:11;;;;;;;;;;;;;;;;;;5002375;28;19913;-63
2024/03/11 06:10:36;;;;;;;;;;;;;;;;;;5009424;28;20004;-62
2024/03/11 06:13:02;;;;;;;;;;;;;;;;;;5012633;28;20044;-61
2024/03/11 06:15:29;;;;;;;;;;;;;;;;;;5007086;28;19922;-62
2024/03/11 06:17:55;;;;;;;;;;;;;;;;;;5010670;28;20362;-62
2024/03/11 06:20:21;;;;;;;;;;;;;;;;;;5007554;28;19957;-61
2024/03/11 06:22:47;;;;;;;;;;;;;;;;;;5005404;28;20339;-63
2024/03/11 06:25:14;;;;;;;;;;;;;;;;;;5008532;28;19921;-62
2024/03/11 06:27:40;;;;;;;;;;;;;;;;;;5010238;28;19923;-57
2024/03/11 06:30:06;;;;;;;;;;;;;;;;;;5012718;28;20726;-62
2024/03/11 06:32:33;;;;;;;;;;;;;;;;;;5011301;28;19921;-62
2024/03/11 06:35:00;;;;;;;;;;;;;;;;;;5007553;28;19988;-62
2024/03/11 06:37:26;;;;;;;;;;;;;;;;;;5007253;28;19949;-62
2024/03/11 06:39:52;;;;;;;;;;;;;;;;;;5007500;28;19917;-62
2024/03/11 06:42:18;;;;;;;;;;;;;;;;;;5002531;28;20296;-62
2024/03/11 06:44:44;;;;;;;;;;;;;;;;;;5004500;28;19932;-62
2024/03/11 06:47:11;;;;;;;;;;;;;;;;;;5003089;28;20012;-62
2024/03/11 06:49:37;;;;;;;;;;;;;;;;;;5009223;28;19944;-60
2024/03/11 06:52:03;;;;;;;;;;;;;;;;;;5006645;28;19921;-62
2024/03/11 06:54:29;;;;;;;;;;;;;;;;;;5010638;28;19925;-62
2024/03/11 06:56:54;;;;;;;;;;;;;;;;;;5006044;28;20623;-62
2024/03/11 06:59:20;;;;;;;;;;;;;;;;;;5011747;28;19917;-62
2024/03/11 07:01:46;;;;;;;;;;;;;;;;;;5005005;28;19921;-63
2024/03/11 07:04:12;;;;;;;;;;;;;;;;;;5014718;28;19982;-61
2024/03/11 07:06:39;;;;;;;;;;;;;;;;;;5012520;28;20391;-61
2024/03/11 07:09:05;;;;;;;;;;;;;;;;;;5016585;28;19921;-61
2024/03/11 07:11:30;;;;;;;;;;;;;;;;;;5009070;28;20299;-61
2024/03/11 07:13:57;;;;;;;;;;;;;;;;;;5014674;28;19913;-59
2024/03/11 07:16:23;;;;;;;;;;;;;;;;;;5013015;28;20391;-62
2024/03/11 07:18:53;;;;;;;;;;;;;;;;;;5013067;28;19983;-61
2024/03/11 07:21:18;;;;;;;;;;;;;;;;;;5010072;28;20100;-59
2024/03/11 07:23:48;;;;;;;;;;;;;;;;;;5027687;28;20008;-60
2024/03/11 07:26:14;;;;;;;;;;;;;;;;;;5020830;28;19968;-60
2024/03/11 07:28:40;;;;;;;;;;;;;;;;;;5009974;28;19914;-61
2024/03/11 07:31:06;;;;;;;;;;;;;;;;;;5009544;28;19927;-61
2024/03/11 07:33:32;;;;;;;;;;;;;;;;;;5005539;28;19913;-62
2024/03/11 07:35:58;;;;;;;;;;;;;;;;;;5007876;28;20296;-62
2024/03/11 07:38:23;;;;;;;;;;;;;;;;;;5012054;28;19984;-61
2024/03/11 07:40:50;;;;;;;;;;;;;;;;;;5013524;28;19917;-62
2024/03/11 07:43:15;;;;;;;;;;;;;;;;;;5012272;28;19999;-62
2024/03/11 07:45:41;;;;;;;;;;;;;;;;;;5015568;28;19953;-61
2024/03/11 07:48:09;;;;;;;;;;;;;;;;;;5014651;28;19913;-61
2024/03/11 07:50:35;;;;;;;;;;;;;;;;;;5011150;28;19948;-60
2024/03/11 07:53:01;;;;;;;;;;;;;;;;;;5011886;28;20393;-60
2024/03/11 07:55:28;;;;;;;;;;;;;;;;;;5013822;28;19913;-60
2024/03/11 07:57:54;;;;;;;;;;;;;;;;;;5016532;28;19967;-62
2024/03/11 08:00:29;;;;;;;;;;;;;;;;;;5011362;28;19921;-61
2024/03/11 08:02:55;;;;;;;;;;;;;;;;;;5010770;28;19914;-58
2024/03/11 08:05:22;;;;;;;;;;;;;;;;;;5025078;28;19914;-61
2024/03/11 08:07:48;;;;;;;;;;;;;;;;;;5010589;28;19918;-62
2024/03/11 08:10:14;;;;;;;;;;;;;;;;;;5015563;28;20302;-62
2024/03/11 08:12:41;;;;;;;;;;;;;;;;;;5012564;28;20354;-62
2024/03/11 08:15:07;;;;;;;;;;;;;;;;;;5009873;28;19914;-62
2024/03/11 08:17:34;;;;;;;;;;;;;;;;;;5010857;28;19913;-60
2024/03/11 08:19:59;;;;;;;;;;;;;;;;;;5014684;28;19921;-62
2024/03/11 08:22:25;;;;;;;;;;;;;;;;;;5011692;28;20410;-60
2024/03/11 08:24:51;;;;;;;;;;;;;;;;;;5009947;28;19913;-60
2024/03/11 08:27:17;;;;;;;;;;;;;;;;;;5011172;28;20004;-61
2024/03/11 08:29:43;;;;;;;;;;;;;;;;;;5010828;28;19914;-60
2024/03/11 08:32:12;;;;;;;;;;;;;;;;;;5014597;28;19959;-60
2024/03/11 08:34:38;;;;;;;;;;;;;;;;;;5017036;28;19932;-61
2024/03/11 08:37:04;;;;;;;;;;;;;;;;;;5011575;28;19918;-62
2024/03/11 08:39:30;;;;;;;;;;;;;;;;;;5014081;28;19954;-60
2024/03/11 08:41:57;;;;;;;;;;;;;;;;;;5014757;28;19925;-61
2024/03/11 08:44:23;;;;;;;;;;;;;;;;;;5018443;28;19913;-62
2024/03/11 08:46:51;;;;;;;;;;;;;;;;;;5016289;28;19924;-60
2024/03/11 08:49:16;;;;;;;;;;;;;;;;;;5027273;28;19928;-61
2024/03/11 08:51:42;;;;;;;;;;;;;;;;;;5022413;28;19913;-61
2024/03/11 08:54:09;;;;;;;;;;;;;;;;;;5026560;28;19926;-61
2024/03/11 08:56:36;;;;;;;;;;;;;;;;;;5020164;28;20388;-60
2024/03/11 08:59:10;;;;;;;;;;;;;;;;;;5024117;28;19923;-61
2024/03/11 09:01:36;;;;;;;;;;;;;;;;;;5017567;28;19913;-62
2024/03/11 09:04:02;;;;;;;;;;;;;;;;;;5018213;28;20016;-63
2024/03/11 09:06:28;;;;;;;;;;;;;;;;;;5010450;28;19921;-60
2024/03/11 09:08:53;;;;;;;;;;;;;;;;;;5014126;28;19909;-61
2024/03/11 09:11:21;;;;;;;;;;;;;;;;;;5014793;28;20281;-60
2024/03/11 09:13:47;;;;;;;;;;;;;;;;;;5015810;28;20384;-60
2024/03/11 09:16:14;;;;;;;;;;;;;;;;;;5015975;28;19959;-60
2024/03/11 09:18:41;;;;;;;;;;;;;;;;;;5014859;28;19921;-60
2024/03/11 09:21:08;;;;;;;;;;;;;;;;;;5015737;28;19926;-61
2024/03/11 09:23:34;;;;;;;;;;;;;;;;;;5014136;28;19914;-60
2024/03/11 09:26:01;;;;;;;;;;;;;;;;;;5011880;28;20394;-60
2024/03/11 09:28:28;;;;;;;;;;;;;;;;;;5014048;28;19914;-62
2024/03/11 09:30:56;;;;;;;;;;;;;;;;;;5019470;28;19959;-59
2024/03/11 09:33:23;;;;;;;;;;;;;;;;;;5014502;28;19949;-60
2024/03/11 09:35:50;;;;;;;;;;;;;;;;;;5017965;28;19921;-61
2024/03/11 09:38:16;;;;;;;;;;;;;;;;;;5014295;28;20375;-59
2024/03/11 09:40:42;;;;;;;;;;;;;;;;;;5018963;28;19943;-62
2024/03/11 09:43:11;;;;;;;;;;;;;;;;;;5019081;28;20055;-62
2024/03/11 09:45:40;;;;;;;;;;;;;;;;;;5019184;28;19913;-60
2024/03/11 09:48:08;;;;;;;;;;;;;;;;;;5018405;28;20395;-62
2024/03/11 09:50:37;;;;;;;;;;;;;;;;;;5015224;28;20376;-61
2024/03/11 09:53:18;;;;;;;;;;;;;;;;;;5017961;28;20355;-62
2024/03/11 09:55:44;;;;;;;;;;;;;;;;;;5013512;28;19922;-59
2024/03/11 09:58:10;;;;;;;;;;;;;;;;;;5016168;28;19928;-60
2024/03/11 10:00:48;;;;;;;;;;;;;;;;;;5013375;28;19996;-60
2024/03/11 10:03:13;;;;;;;;;;;;;;;;;;5015152;28;20657;-60
2024/03/11 10:05:39;;;;;;;;;;;;;;;;;;5010215;28;19979;-60
2024/03/11 10:08:05;;;;;;;;;;;;;;;;;;5014411;28;20406;-59
2024/03/11 10:10:32;;;;;;;;;;;;;;;;;;5014063;28;20435;-62
2024/03/11 10:12:59;;;;;;;;;;;;;;;;;;5013864;28;19921;-62
2024/03/11 10:15:28;;;;;;;;;;;;;;;;;;5015161;28;20011;-62
2024/03/11 10:17:54;;;;;;;;;;;;;;;;;;5011813;28;19917;-60
2024/03/11 10:20:21;;;;;;;;;;;;;;;;;;5012728;28;19925;-61
2024/03/11 10:22:47;;;;;;;;;;;;;;;;;;5016087;28;20338;-62
2024/03/11 10:25:16;;;;;;;;;;;;;;;;;;5010916;28;19920;-58
2024/03/11 10:27:43;;;;;;;;;;;;;;;;;;5015832;28;20022;-59
2024/03/11 10:30:11;;;;;;;;;;;;;;;;;;5015612;28;20394;-59
2024/03/11 10:32:38;;;;;;;;;;;;;;;;;;5010637;28;19924;-61
2024/03/11 10:35:04;;;;;;;;;;;;;;;;;;5004267;28;20099;-60
2024/03/11 10:37:30;;;;;;;;;;;;;;;;;;5009404;28;20005;-60
2024/03/11 10:40:03;;;;;;;;;;;;;;;;;;5009510;28;19924;-59
2024/03/11 10:42:32;;;;;;;;;;;;;;;;;;5024061;28;19917;-62
2024/03/11 10:44:58;;;;;;;;;;;;;;;;;;5016764;28;19957;-60
2024/03/11 10:47:24;;;;;;;;;;;;;;;;;;5017916;28;19965;-60
2024/03/11 10:49:50;;;;;;;;;;;;;;;;;;5005725;28;19918;-61
2024/03/11 10:52:15;;;;;;;;;;;;;;;;;;5013845;28;19921;-60
2024/03/11 10:54:42;;;;;;;;;;;;;;;;;;5012997;28;19913;-61
2024/03/11 10:57:11;;;;;;;;;;;;;;;;;;5019496;28;20425;-60
2024/03/11 10:59:38;;;;;;;;;;;;;;;;;;5013323;28;19935;-59
2024/03/11 11:02:04;;;;;;;;;;;;;;;;;;5019949;28;19964;-63
2024/03/11 11:04:33;;;;;;;;;;;;;;;;;;5012300;28;19913;-62
2024/03/11 11:06:59;;;;;;;;;;;;;;;;;;5012914;28;19913;-60
2024/03/11 11:09:25;;;;;;;;;;;;;;;;;;5018935;28;19913;-59
2024/03/11 11:11:54;;;;;;;;;;;;;;;;;;5018298;28;19940;-61
2024/03/11 11:14:20;;;;;;;;;;;;;;;;;;5017673;28;20012;-59
2024/03/11 11:16:45;;;;;;;;;;;;;;;;;;5016459;28;20021;-60
2024/03/11 11:19:12;;;;;;;;;;;;;;;;;;5015906;28;19968;-60
2024/03/11 11:21:39;;;;;;;;;;;;;;;;;;5020013;28;20012;-60
2024/03/11 11:24:05;;;;;;;;;;;;;;;;;;5019685;28;19921;-58
2024/03/11 11:26:31;;;;;;;;;;;;;;;;;;5016142;28;20016;-60
2024/03/11 11:28:58;;;;;;;;;;;;;;;;;;5016597;28;20021;-61
2024/03/11 11:31:27;;;;;;;;;;;;;;;;;;5013789;28;19920;-59
2024/03/11 11:33:59;;;;;;;;;;;;;;;;;;5010186;28;19913;-60
2024/03/11 11:36:24;;;;;;;;;;;;;;;;;;5013076;28;19972;-60
2024/03/11 11:38:50;;;;;;;;;;;;;;;;;;5009449;28;20002;-61
2024/03/11 11:41:17;;;;;;;;;;;;;;;;;;5012362;28;19940;-57
2024/03/11 11:43:44;;;;;;;;;;;;;;;;;;5019094;28;19924;-57
2024/03/11 11:46:11;;;;;;;;;;;;;;;;;;5014736;28;20358;-61
2024/03/11 11:48:37;;;;;;;;;;;;;;;;;;5009137;28;20024;-59
2024/03/11 11:51:03;;;;;;;;;;;;;;;;;;5009053;28;19917;-63
2024/03/11 11:53:29;;;;;;;;;;;;;;;;;;5010517;28;19924;-58
2024/03/11 11:55:56;;;;;;;;;;;;;;;;;;5011794;28;20308;-61
2024/03/11 11:58:22;;;;;;;;;;;;;;;;;;5011715;28;20391;-59
2024/03/11 12:00:48;;;;;;;;;;;;;;;;;;5011692;28;20035;-60
2024/03/11 12:03:14;;;;;;;;;;;;;;;;;;5022004;28;19917;-61
2024/03/11 12:05:40;;;;;;;;;;;;;;;;;;5010445;28;19960;-61
2024/03/11 12:08:07;;;;;;;;;;;;;;;;;;5018385;28;19919;-59
2024/03/11 12:10:33;;;;;;;;;;;;;;;;;;5013290;28;19918;-61
2024/03/11 12:13:00;;;;;;;;;;;;;;;;;;5009354;28;20430;-61
2024/03/11 12:15:27;;;;;;;;;;;;;;;;;;5009375;28;19971;-62
2024/03/11 12:17:53;;;;;;;;;;;;;;;;;;5011519;28;20387;-60
2024/03/11 12:20:30;;;;;;;;;;;;;;;;;;5012614;28;19923;-60
2024/03/11 12:22:56;;;;;;;;;;;;;;;;;;5016069;28;19923;-60
2024/03/11 12:25:22;;;;;;;;;;;;;;;;;;5013220;28;19917;-60
2024/03/11 12:27:50;;;;;;;;;;;;;;;;;;5018090;28;19924;-61
2024/03/11 12:30:19;;;;;;;;;;;;;;;;;;5013491;28;19917;-61
2024/03/11 12:32:45;;;;;;;;;;;;;;;;;;5014855;28;19971;-61
2024/03/11 12:35:13;;;;;;;;;;;;;;;;;;5013274;28;20322;-60
2024/03/11 12:37:39;;;;;;;;;;;;;;;;;;5014653;28;20028;-61
2024/03/11 12:40:08;;;;;;;;;;;;;;;;;;5008529;28;20570;-60
2024/03/11 12:42:36;;;;;;;;;;;;;;;;;;5009225;28;20008;-60
2024/03/11 12:45:03;;;;;;;;;;;;;;;;;;5015672;28;19921;-59
2024/03/11 12:47:29;;;;;;;;;;;;;;;;;;5013626;28;19937;-60
2024/03/11 12:49:55;;;;;;;;;;;;;;;;;;5019647;28;20533;-60
2024/03/11 12:52:21;;;;;;;;;;;;;;;;;;5013883;28;19917;-61
2024/03/11 12:54:47;;;;;;;;;;;;;;;;;;5011202;28;19917;-59
2024/03/11 12:57:16;;;;;;;;;;;;;;;;;;5016261;28;20004;-59
2024/03/11 12:59:42;;;;;;;;;;;;;;;;;;5010989;28;19928;-59
2024/03/11 13:02:09;;;;;;;;;;;;;;;;;;5013569;28;19917;-60
2024/03/11 13:04:36;;;;;;;;;;;;;;;;;;5011481;28;20020;-58
2024/03/11 13:07:05;;;;;;;;;;;;;;;;;;5014117;28;19918;-61
2024/03/11 13:09:32;;;;;;;;;;;;;;;;;;5014359;28;20003;-61
2024/03/11 13:12:01;;;;;;;;;;;;;;;;;;5010884;28;19924;-59
2024/03/11 13:14:27;;;;;;;;;;;;;;;;;;5016010;28;19924;-61
2024/03/11 13:16:56;;;;;;;;;;;;;;;;;;5011732;28;19925;-60
2024/03/11 13:19:25;;;;;;;;;;;;;;;;;;5010598;28;19924;-61
2024/03/11 13:21:51;;;;;;;;;;;;;;;;;;5004827;28;19924;-59
2024/03/11 13:24:18;;;;;;;;;;;;;;;;;;5006862;28;19917;-61
2024/03/11 13:26:48;;;;;;;;;;;;;;;;;;5010286;28;19985;-59
2024/03/11 13:29:14;;;;;;;;;;;;;;;;;;5011690;28;19953;-62
2024/03/11 13:31:40;;;;;;;;;;;;;;;;;;5008282;28;19963;-60
2024/03/11 13:34:07;;;;;;;;;;;;;;;;;;5011319;28;20024;-61
2024/03/11 13:36:33;;;;;;;;;;;;;;;;;;5009184;28;20336;-61
2024/03/11 13:39:00;;;;;;;;;;;;;;;;;;5010293;28;19921;-59
2024/03/11 13:41:28;;;;;;;;;;;;;;;;;;5019969;28;21416;-59
2024/03/11 13:43:54;;;;;;;;;;;;;;;;;;5013056;28;19921;-59
2024/03/11 13:46:20;;;;;;;;;;;;;;;;;;5013720;28;20268;-60
2024/03/11 13:48:46;;;;;;;;;;;;;;;;;;5008207;28;19913;-59
2024/03/11 13:51:13;;;;;;;;;;;;;;;;;;5014715;28;19920;-59
2024/03/11 13:53:38;;;;;;;;;;;;;;;;;;5027557;28;19917;-60
2024/03/11 13:56:05;;;;;;;;;;;;;;;;;;5015275;28;19944;-60
2024/03/11 13:58:31;;;;;;;;;;;;;;;;;;5010694;28;19921;-61
2024/03/11 14:00:57;;;;;;;;;;;;;;;;;;5011974;28;19921;-59
2024/03/11 14:03:23;;;;;;;;;;;;;;;;;;5010875;28;19918;-61
2024/03/11 14:05:52;;;;;;;;;;;;;;;;;;5004518;28;19925;-59
2024/03/11 14:08:18;;;;;;;;;;;;;;;;;;5007691;28;19933;-59
2024/03/11 14:10:48;;;;;;;;;;;;;;;;;;5004765;28;19917;-59
2024/03/11 14:13:14;;;;;;;;;;;;;;;;;;5007475;28;19921;-61
2024/03/11 14:15:42;;;;;;;;;;;;;;;;;;5010159;28;19917;-60
2024/03/11 14:18:08;;;;;;;;;;;;;;;;;;5011177;28;20371;-61
2024/03/11 14:20:35;;;;;;;;;;;;;;;;;;5011905;28;19917;-61
2024/03/11 14:23:01;;;;;;;;;;;;;;;;;;5013822;28;19913;-60
2024/03/11 14:25:31;;;;;;;;;;;;;;;;;;5013622;28;19967;-60
2024/03/11 14:27:56;;;;;;;;;;;;;;;;;;5011156;28;20308;-61
2024/03/11 14:30:30;;;;;;;;;;;;;;;;;;5014583;28;19924;-59
2024/03/11 14:32:57;;;;;;;;;;;;;;;;;;5007657;28;19960;-59
2024/03/11 14:35:27;;;;;;;;;;;;;;;;;;5008084;28;20007;-60
2024/03/11 14:37:55;;;;;;;;;;;;;;;;;;5013016;28;19917;-61
2024/03/11 14:40:41;;;;;;;;;;;;;;;;;;5007583;28;19928;-60
2024/03/11 14:43:08;;;;;;;;;;;;;;;;;;5011945;28;19941;-59
2024/03/11 14:45:34;;;;;;;;;;;;;;;;;;5008984;28;19925;-59
2024/03/11 14:48:01;;;;;;;;;;;;;;;;;;5015625;28;20449;-60
2024/03/11 14:50:29;;;;;;;;;;;;;;;;;;5013810;28;20013;-59
2024/03/11 14:52:55;;;;;;;;;;;;;;;;;;5013750;28;19918;-60
2024/03/11 14:55:21;;;;;;;;;;;;;;;;;;5014014;28;20391;-60
2024/03/11 14:57:50;;;;;;;;;;;;;;;;;;5017371;28;19931;-61
2024/03/11 15:00:20;;;;;;;;;;;;;;;;;;5008942;28;19937;-61
2024/03/11 15:02:46;;;;;;;;;;;;;;;;;;5021667;28;19917;-60
2024/03/11 15:05:18;;;;;;;;;;;;;;;;;;5013422;28;19917;-60
2024/03/11 15:07:44;;;;;;;;;;;;;;;;;;5016538;28;20331;-60
2024/03/11 15:10:10;;;;;;;;;;;;;;;;;;5011687;28;19928;-60
2024/03/11 15:12:36;;;;;;;;;;;;;;;;;;5019328;28;20011;-58
2024/03/11 15:15:05;;;;;;;;;;;;;;;;;;5013219;28;19971;-60
2024/03/11 15:17:31;;;;;;;;;;;;;;;;;;5019678;28;20376;-59
2024/03/11 15:19:57;;;;;;;;;;;;;;;;;;5013146;28;20008;-60
2024/03/11 15:22:24;;;;;;;;;;;;;;;;;;5016721;28;20410;-60
2024/03/11 15:24:50;;;;;;;;;;;;;;;;;;5009969;28;19922;-61
2024/03/11 15:27:16;;;;;;;;;;;;;;;;;;5025565;28;19924;-60
2024/03/11 15:29:42;;;;;;;;;;;;;;;;;;5015371;28;19971;-60
2024/03/11 15:32:11;;;;;;;;;;;;;;;;;;5018849;28;19917;-61
2024/03/11 15:34:37;;;;;;;;;;;;;;;;;;5013604;28;19913;-60
2024/03/11 15:37:04;;;;;;;;;;;;;;;;;;5027007;28;19920;-61
2024/03/11 15:39:38;;;;;;;;;;;;;;;;;;5021151;28;19936;-60
2024/03/11 15:42:06;;;;;;;;;;;;;;;;;;5020833;28;19913;-59
2024/03/11 15:44:32;;;;;;;;;;;;;;;;;;5011909;28;19913;-60
2024/03/11 15:46:57;;;;;;;;;;;;;;;;;;5013072;28;20276;-59
2024/03/11 15:49:23;;;;;;;;;;;;;;;;;;5010810;28;19924;-58
2024/03/11 15:51:51;;;;;;;;;;;;;;;;;;5004887;28;19924;-60
2024/03/11 15:54:17;;;;;;;;;;;;;;;;;;5020534;28;20331;-59
2024/03/11 15:56:44;;;;;;;;;;;;;;;;;;5010122;28;19928;-58
2024/03/11 15:59:10;;;;;;;;;;;;;;;;;;5008888;28;19926;-59
2024/03/11 16:01:36;;;;;;;;;;;;;;;;;;5012822;28;19917;-60
2024/03/11 16:04:04;;;;;;;;;;;;;;;;;;5008632;28;19921;-60
2024/03/11 16:06:30;;;;;;;;;;;;;;;;;;5010774;28;20098;-60
2024/03/11 16:08:57;;;;;;;;;;;;;;;;;;5011617;28;20020;-60
2024/03/11 16:11:24;;;;;;;;;;;;;;;;;;5013336;28;20521;-58
2024/03/11 16:13:51;;;;;;;;;;;;;;;;;;5009534;28;19924;-61
2024/03/11 16:16:19;;;;;;;;;;;;;;;;;;5006513;28;20312;-59
2024/03/11 16:18:44;;;;;;;;;;;;;;;;;;5009788;28;19925;-59
2024/03/11 16:21:10;;;;;;;;;;;;;;;;;;5010422;28;20291;-59
2024/03/11 16:23:36;;;;;;;;;;;;;;;;;;5013763;28;19963;-59
2024/03/11 16:26:04;;;;;;;;;;;;;;;;;;5010817;28;20755;-57
2024/03/11 16:28:29;;;;;;;;;;;;;;;;;;5014303;28;19921;-61
2024/03/11 16:30:55;;;;;;;;;;;;;;;;;;5015075;28;20371;-58
2024/03/11 16:33:24;;;;;;;;;;;;;;;;;;5015754;28;19944;-61
2024/03/11 16:35:50;;;;;;;;;;;;;;;;;;5006730;28;20340;-58
2024/03/11 16:38:18;;;;;;;;;;;;;;;;;;5012355;28;19924;-59
2024/03/11 16:40:45;;;;;;;;;;;;;;;;;;5009447;28;19920;-59
2024/03/11 16:43:11;;;;;;;;;;;;;;;;;;5014043;28;19924;-57